sensor_id;sensor_type;location;lat;lon;timestamp;P1;durP1;ratioP1;P2;durP2;ratioP2
66581;SDS011;53438;48.898;2.308;2023-11-18T00:02:16;11.02;;;4.00;;
66581;SDS011;53438;48.898;2.308;2023-11-18T00:04:42;7.15;;;4.15;;
66581;SDS011;53438;48.898;2.308;2023-11-18T00:07:08;10.27;;;4.07;;
66581;SDS011;53438;48.898;2.308;2023-11-18T00:09:34;13.82;;;5.25;;
66581;SDS011;53438;48.898;2.308;2023-11-18T00:11:59;9.13;;;4.20;;
66581;SDS011;53438;48.898;2.308;2023-11-18T00:14:25;10.95;;;4.30;;
66581;SDS011;53438;48.898;2.308;2023-11-18T00:16:50;7.20;;;3.77;;
66581;SDS011;53438;48.898;2.308;2023-11-18T00:19:15;8.17;;;4.00;;
66581;SDS011;53438;48.898;2.308;2023-11-18T00:21:42;14.98;;;4.82;;
66581;SDS011;53438;48.898;2.308;2023-11-18T00:24:07;11.07;;;4.10;;
66581;SDS011;53438;48.898;2.308;2023-11-18T00:26:33;12.13;;;4.87;;
66581;SDS011;53438;48.898;2.308;2023-11-18T00:28:59;11.65;;;4.90;;
66581;SDS011;53438;48.898;2.308;2023-11-18T00:31:25;12.37;;;4.93;;
66581;SDS011;53438;48.898;2.308;2023-11-18T00:33:51;9.00;;;4.93;;
66581;SDS011;53438;48.898;2.308;2023-11-18T00:36:17;12.32;;;5.40;;
66581;SDS011;53438;48.898;2.308;2023-11-18T00:38:42;14.87;;;8.83;;
66581;SDS011;53438;48.898;2.308;2023-11-18T00:41:08;25.27;;;12.70;;
66581;SDS011;53438;48.898;2.308;2023-11-18T00:43:33;21.90;;;11.43;;
66581;SDS011;53438;48.898;2.308;2023-11-18T00:45:58;10.37;;;5.90;;
66581;SDS011;53438;48.898;2.308;2023-11-18T00:48:24;11.43;;;5.07;;
66581;SDS011;53438;48.898;2.308;2023-11-18T00:50:50;12.20;;;6.00;;
66581;SDS011;53438;48.898;2.308;2023-11-18T00:53:16;12.13;;;5.35;;
66581;SDS011;53438;48.898;2.308;2023-11-18T00:55:42;12.00;;;5.33;;
66581;SDS011;53438;48.898;2.308;2023-11-18T00:58:07;10.60;;;4.80;;
66581;SDS011;53438;48.898;2.308;2023-11-18T04:02:11;9.25;;;2.95;;
66581;SDS011;53438;48.898;2.308;2023-11-18T04:04:37;11.10;;;3.00;;
66581;SDS011;53438;48.898;2.308;2023-11-18T04:07:03;7.75;;;3.28;;
66581;SDS011;53438;48.898;2.308;2023-11-18T04:09:29;7.20;;;3.17;;
66581;SDS011;53438;48.898;2.308;2023-11-18T04:11:55;9.20;;;2.93;;
66581;SDS011;53438;48.898;2.308;2023-11-18T04:14:20;7.57;;;3.53;;
66581;SDS011;53438;48.898;2.308;2023-11-18T04:16:46;10.48;;;2.92;;
66581;SDS011;53438;48.898;2.308;2023-11-18T04:19:12;8.75;;;2.92;;
66581;SDS011;53438;48.898;2.308;2023-11-18T04:21:37;6.63;;;3.20;;
66581;SDS011;53438;48.898;2.308;2023-11-18T04:24:03;10.13;;;3.17;;
66581;SDS011;53438;48.898;2.308;2023-11-18T04:26:30;8.20;;;2.78;;
66581;SDS011;53438;48.898;2.308;2023-11-18T04:28:56;9.90;;;3.70;;
66581;SDS011;53438;48.898;2.308;2023-11-18T04:31:21;9.33;;;2.97;;
66581;SDS011;53438;48.898;2.308;2023-11-18T04:33:47;8.57;;;3.33;;
66581;SDS011;53438;48.898;2.308;2023-11-18T04:36:12;8.73;;;3.10;;
66581;SDS011;53438;48.898;2.308;2023-11-18T04:38:38;8.70;;;3.53;;
66581;SDS011;53438;48.898;2.308;2023-11-18T04:41:04;9.20;;;2.87;;
66581;SDS011;53438;48.898;2.308;2023-11-18T04:43:29;8.63;;;2.90;;
66581;SDS011;53438;48.898;2.308;2023-11-18T04:45:55;12.77;;;3.40;;
66581;SDS011;53438;48.898;2.308;2023-11-18T04:48:20;7.67;;;3.00;;
66581;SDS011;53438;48.898;2.308;2023-11-18T04:50:46;8.47;;;3.30;;
66581;SDS011;53438;48.898;2.308;2023-11-18T04:53:11;7.32;;;3.10;;
66581;SDS011;53438;48.898;2.308;2023-11-18T04:55:37;7.63;;;3.20;;
66581;SDS011;53438;48.898;2.308;2023-11-18T04:58:03;6.63;;;3.70;;
66581;SDS011;53438;48.898;2.308;2023-11-18T05:00:31;10.63;;;3.00;;
66581;SDS011;53438;48.898;2.308;2023-11-18T05:02:57;6.28;;;2.53;;
66581;SDS011;53438;48.898;2.308;2023-11-18T05:05:23;8.60;;;3.25;;
66581;SDS011;53438;48.898;2.308;2023-11-18T05:07:48;8.67;;;2.80;;
66581;SDS011;53438;48.898;2.308;2023-11-18T05:10:13;11.33;;;3.70;;
66581;SDS011;53438;48.898;2.308;2023-11-18T05:12:39;6.90;;;3.10;;
66581;SDS011;53438;48.898;2.308;2023-11-18T05:15:05;5.10;;;2.97;;
66581;SDS011;53438;48.898;2.308;2023-11-18T05:17:33;7.07;;;3.05;;
66581;SDS011;53438;48.898;2.308;2023-11-18T05:20:01;10.43;;;3.20;;
66581;SDS011;53438;48.898;2.308;2023-11-18T05:22:29;7.47;;;2.38;;
66581;SDS011;53438;48.898;2.308;2023-11-18T05:24:56;6.13;;;2.80;;
66581;SDS011;53438;48.898;2.308;2023-11-18T05:27:21;8.63;;;3.17;;
66581;SDS011;53438;48.898;2.308;2023-11-18T05:29:47;6.20;;;2.47;;
66581;SDS011;53438;48.898;2.308;2023-11-18T05:32:19;9.10;;;3.50;;
66581;SDS011;53438;48.898;2.308;2023-11-18T05:34:45;6.43;;;2.75;;
66581;SDS011;53438;48.898;2.308;2023-11-18T05:37:11;8.67;;;3.17;;
66581;SDS011;53438;48.898;2.308;2023-11-18T05:39:36;6.22;;;2.88;;
66581;SDS011;53438;48.898;2.308;2023-11-18T05:42:08;9.73;;;3.17;;
66581;SDS011;53438;48.898;2.308;2023-11-18T05:44:35;8.55;;;2.95;;
66581;SDS011;53438;48.898;2.308;2023-11-18T05:47:02;8.73;;;3.10;;
66581;SDS011;53438;48.898;2.308;2023-11-18T05:49:28;7.03;;;3.00;;
66581;SDS011;53438;48.898;2.308;2023-11-18T05:51:54;7.68;;;2.85;;
66581;SDS011;53438;48.898;2.308;2023-11-18T05:54:19;9.27;;;2.30;;
66581;SDS011;53438;48.898;2.308;2023-11-18T05:56:45;5.30;;;2.27;;
66581;SDS011;53438;48.898;2.308;2023-11-18T05:59:10;5.82;;;2.00;;
66581;SDS011;53438;48.898;2.308;2023-11-18T06:01:36;7.35;;;2.72;;
66581;SDS011;53438;48.898;2.308;2023-11-18T06:04:02;8.20;;;2.67;;
66581;SDS011;53438;48.898;2.308;2023-11-18T06:06:28;6.15;;;2.08;;
66581;SDS011;53438;48.898;2.308;2023-11-18T06:08:53;10.83;;;2.90;;
66581;SDS011;53438;48.898;2.308;2023-11-18T06:11:19;11.73;;;2.93;;
66581;SDS011;53438;48.898;2.308;2023-11-18T06:13:45;3.60;;;2.00;;
66581;SDS011;53438;48.898;2.308;2023-11-18T06:16:12;7.10;;;2.10;;
66581;SDS011;53438;48.898;2.308;2023-11-18T06:18:39;7.88;;;2.40;;
66581;SDS011;53438;48.898;2.308;2023-11-18T06:21:06;8.07;;;2.43;;
66581;SDS011;53438;48.898;2.308;2023-11-18T06:23:31;5.20;;;1.98;;
66581;SDS011;53438;48.898;2.308;2023-11-18T06:25:58;8.65;;;2.20;;
66581;SDS011;53438;48.898;2.308;2023-11-18T06:28:25;6.93;;;1.77;;
66581;SDS011;53438;48.898;2.308;2023-11-18T06:30:51;8.43;;;1.92;;
66581;SDS011;53438;48.898;2.308;2023-11-18T06:33:16;10.10;;;2.47;;
66581;SDS011;53438;48.898;2.308;2023-11-18T06:35:42;7.45;;;2.45;;
66581;SDS011;53438;48.898;2.308;2023-11-18T06:38:10;5.75;;;2.03;;
66581;SDS011;53438;48.898;2.308;2023-11-18T06:40:38;6.65;;;2.20;;
66581;SDS011;53438;48.898;2.308;2023-11-18T06:43:03;6.73;;;2.00;;
66581;SDS011;53438;48.898;2.308;2023-11-18T06:45:35;7.63;;;2.65;;
66581;SDS011;53438;48.898;2.308;2023-11-18T06:48:02;5.40;;;1.60;;
66581;SDS011;53438;48.898;2.308;2023-11-18T06:50:30;5.10;;;1.80;;
66581;SDS011;53438;48.898;2.308;2023-11-18T06:52:56;8.80;;;2.15;;
66581;SDS011;53438;48.898;2.308;2023-11-18T06:55:22;6.38;;;1.73;;
66581;SDS011;53438;48.898;2.308;2023-11-18T06:57:47;6.30;;;1.70;;
66581;SDS011;53438;48.898;2.308;2023-11-18T07:00:13;4.87;;;2.33;;
66581;SDS011;53438;48.898;2.308;2023-11-18T07:02:40;8.25;;;2.10;;
66581;SDS011;53438;48.898;2.308;2023-11-18T07:05:05;3.67;;;1.77;;
66581;SDS011;53438;48.898;2.308;2023-11-18T07:07:31;4.67;;;2.00;;
66581;SDS011;53438;48.898;2.308;2023-11-18T07:09:57;5.50;;;2.00;;
66581;SDS011;53438;48.898;2.308;2023-11-18T07:12:22;5.03;;;2.17;;
66581;SDS011;53438;48.898;2.308;2023-11-18T07:14:48;5.57;;;2.40;;
66581;SDS011;53438;48.898;2.308;2023-11-18T07:17:13;6.15;;;1.50;;
66581;SDS011;53438;48.898;2.308;2023-11-18T07:19:39;6.27;;;2.23;;
66581;SDS011;53438;48.898;2.308;2023-11-18T07:22:05;5.63;;;2.25;;
66581;SDS011;53438;48.898;2.308;2023-11-18T07:24:31;6.22;;;2.20;;
66581;SDS011;53438;48.898;2.308;2023-11-18T07:26:57;4.87;;;1.50;;
66581;SDS011;53438;48.898;2.308;2023-11-18T07:29:24;2.67;;;1.80;;
66581;SDS011;53438;48.898;2.308;2023-11-18T07:31:51;6.30;;;1.80;;
66581;SDS011;53438;48.898;2.308;2023-11-18T07:34:16;3.47;;;1.70;;
66581;SDS011;53438;48.898;2.308;2023-11-18T07:36:42;10.27;;;2.20;;
66581;SDS011;53438;48.898;2.308;2023-11-18T07:39:10;7.00;;;2.28;;
66581;SDS011;53438;48.898;2.308;2023-11-18T07:41:41;4.45;;;1.52;;
66581;SDS011;53438;48.898;2.308;2023-11-18T07:44:07;3.10;;;1.67;;
66581;SDS011;53438;48.898;2.308;2023-11-18T07:46:35;3.27;;;1.80;;
66581;SDS011;53438;48.898;2.308;2023-11-18T07:49:03;6.05;;;1.70;;
66581;SDS011;53438;48.898;2.308;2023-11-18T07:51:29;5.35;;;1.77;;
66581;SDS011;53438;48.898;2.308;2023-11-18T07:53:54;2.47;;;1.50;;
66581;SDS011;53438;48.898;2.308;2023-11-18T07:56:19;4.13;;;1.50;;
66581;SDS011;53438;48.898;2.308;2023-11-18T07:58:47;3.95;;;1.80;;
66581;SDS011;53438;48.898;2.308;2023-11-18T08:01:12;4.53;;;1.63;;
66581;SDS011;53438;48.898;2.308;2023-11-18T08:03:41;2.30;;;1.38;;
66581;SDS011;53438;48.898;2.308;2023-11-18T08:06:07;3.90;;;1.57;;
66581;SDS011;53438;48.898;2.308;2023-11-18T08:08:33;4.97;;;2.03;;
66581;SDS011;53438;48.898;2.308;2023-11-18T08:10:59;5.05;;;2.50;;
66581;SDS011;53438;48.898;2.308;2023-11-18T08:13:25;4.33;;;1.80;;
66581;SDS011;53438;48.898;2.308;2023-11-18T08:15:51;3.75;;;2.05;;
66581;SDS011;53438;48.898;2.308;2023-11-18T08:18:17;4.30;;;1.42;;
66581;SDS011;53438;48.898;2.308;2023-11-18T08:20:43;3.23;;;1.30;;
66581;SDS011;53438;48.898;2.308;2023-11-18T08:23:09;2.55;;;1.55;;
66581;SDS011;53438;48.898;2.308;2023-11-18T08:25:35;4.03;;;1.50;;
66581;SDS011;53438;48.898;2.308;2023-11-18T08:28:01;2.73;;;1.80;;
66581;SDS011;53438;48.898;2.308;2023-11-18T08:30:27;3.90;;;1.52;;
66581;SDS011;53438;48.898;2.308;2023-11-18T08:32:52;2.97;;;1.70;;
66581;SDS011;53438;48.898;2.308;2023-11-18T08:35:17;3.23;;;1.40;;
66581;SDS011;53438;48.898;2.308;2023-11-18T08:37:43;1.95;;;1.13;;
66581;SDS011;53438;48.898;2.308;2023-11-18T08:40:10;4.47;;;3.40;;
66581;SDS011;53438;48.898;2.308;2023-11-18T08:42:50;5.15;;;1.40;;
66581;SDS011;53438;48.898;2.308;2023-11-18T08:45:16;2.05;;;1.23;;
66581;SDS011;53438;48.898;2.308;2023-11-18T08:47:57;2.40;;;1.05;;
66581;SDS011;53438;48.898;2.308;2023-11-18T08:50:23;3.40;;;1.27;;
66581;SDS011;53438;48.898;2.308;2023-11-18T08:52:53;3.87;;;1.60;;
66581;SDS011;53438;48.898;2.308;2023-11-18T08:55:22;3.10;;;1.40;;
66581;SDS011;53438;48.898;2.308;2023-11-18T08:58:03;3.75;;;1.77;;
66581;SDS011;53438;48.898;2.308;2023-11-18T09:00:40;4.05;;;1.40;;
66581;SDS011;53438;48.898;2.308;2023-11-18T09:03:10;4.97;;;2.10;;
66581;SDS011;53438;48.898;2.308;2023-11-18T09:05:43;2.53;;;1.40;;
66581;SDS011;53438;48.898;2.308;2023-11-18T09:08:22;2.60;;;1.58;;
66581;SDS011;53438;48.898;2.308;2023-11-18T09:10:48;3.00;;;1.67;;
66581;SDS011;53438;48.898;2.308;2023-11-18T09:13:14;3.23;;;1.70;;
66581;SDS011;53438;48.898;2.308;2023-11-18T09:15:39;2.70;;;1.50;;
66581;SDS011;53438;48.898;2.308;2023-11-18T09:18:05;3.80;;;1.67;;
66581;SDS011;53438;48.898;2.308;2023-11-18T09:20:35;4.47;;;1.60;;
66581;SDS011;53438;48.898;2.308;2023-11-18T09:23:01;3.20;;;1.80;;
66581;SDS011;53438;48.898;2.308;2023-11-18T09:25:26;7.55;;;3.83;;
66581;SDS011;53438;48.898;2.308;2023-11-18T09:27:52;4.60;;;2.30;;
66581;SDS011;53438;48.898;2.308;2023-11-18T09:30:18;4.23;;;1.73;;
66581;SDS011;53438;48.898;2.308;2023-11-18T09:32:44;2.83;;;1.92;;
66581;SDS011;53438;48.898;2.308;2023-11-18T09:35:12;3.33;;;1.47;;
66581;SDS011;53438;48.898;2.308;2023-11-18T09:37:39;3.65;;;1.85;;
66581;SDS011;53438;48.898;2.308;2023-11-18T09:40:08;3.00;;;1.50;;
66581;SDS011;53438;48.898;2.308;2023-11-18T09:42:38;3.88;;;1.75;;
66581;SDS011;53438;48.898;2.308;2023-11-18T09:45:04;2.60;;;1.40;;
66581;SDS011;53438;48.898;2.308;2023-11-18T09:47:32;3.85;;;1.98;;
66581;SDS011;53438;48.898;2.308;2023-11-18T09:50:06;4.63;;;1.90;;
66581;SDS011;53438;48.898;2.308;2023-11-18T09:52:35;3.13;;;1.80;;
66581;SDS011;53438;48.898;2.308;2023-11-18T09:55:18;3.20;;;1.50;;
66581;SDS011;53438;48.898;2.308;2023-11-18T09:57:52;4.80;;;1.70;;
66581;SDS011;53438;48.898;2.308;2023-11-18T10:00:25;3.42;;;1.67;;
66581;SDS011;53438;48.898;2.308;2023-11-18T10:02:57;7.13;;;4.05;;
66581;SDS011;53438;48.898;2.308;2023-11-18T10:05:25;6.38;;;3.08;;
66581;SDS011;53438;48.898;2.308;2023-11-18T10:07:52;4.68;;;2.20;;
66581;SDS011;53438;48.898;2.308;2023-11-18T10:10:18;4.90;;;1.70;;
66581;SDS011;53438;48.898;2.308;2023-11-18T10:12:46;5.72;;;2.05;;
66581;SDS011;53438;48.898;2.308;2023-11-18T10:15:22;2.33;;;1.52;;
66581;SDS011;53438;48.898;2.308;2023-11-18T10:17:49;3.25;;;1.30;;
66581;SDS011;53438;48.898;2.308;2023-11-18T10:20:50;2.97;;;1.38;;
66581;SDS011;53438;48.898;2.308;2023-11-18T10:23:16;2.23;;;1.03;;
66581;SDS011;53438;48.898;2.308;2023-11-18T10:25:49;4.03;;;1.70;;
66581;SDS011;53438;48.898;2.308;2023-11-18T10:28:21;2.03;;;1.50;;
66581;SDS011;53438;48.898;2.308;2023-11-18T10:30:47;2.92;;;1.58;;
66581;SDS011;53438;48.898;2.308;2023-11-18T10:33:13;4.73;;;1.10;;
66581;SDS011;53438;48.898;2.308;2023-11-18T10:35:47;3.95;;;1.77;;
66581;SDS011;53438;48.898;2.308;2023-11-18T10:38:16;4.00;;;1.77;;
66581;SDS011;53438;48.898;2.308;2023-11-18T10:40:41;4.03;;;1.40;;
66581;SDS011;53438;48.898;2.308;2023-11-18T10:43:07;3.10;;;1.43;;
66581;SDS011;53438;48.898;2.308;2023-11-18T10:45:34;6.38;;;2.83;;
66581;SDS011;53438;48.898;2.308;2023-11-18T10:48:05;3.25;;;1.58;;
66581;SDS011;53438;48.898;2.308;2023-11-18T10:50:30;3.00;;;1.80;;
66581;SDS011;53438;48.898;2.308;2023-11-18T10:52:57;4.73;;;1.60;;
66581;SDS011;53438;48.898;2.308;2023-11-18T10:55:34;4.75;;;1.98;;
66581;SDS011;53438;48.898;2.308;2023-11-18T10:58:01;4.38;;;2.08;;
66581;SDS011;53438;48.898;2.308;2023-11-18T11:00:26;3.00;;;1.60;;
66581;SDS011;53438;48.898;2.308;2023-11-18T11:02:58;3.13;;;2.10;;
66581;SDS011;53438;48.898;2.308;2023-11-18T11:05:27;3.20;;;2.03;;
66581;SDS011;53438;48.898;2.308;2023-11-18T11:07:57;2.43;;;1.63;;
66581;SDS011;53438;48.898;2.308;2023-11-18T11:10:24;7.43;;;2.95;;
66581;SDS011;53438;48.898;2.308;2023-11-18T11:12:59;5.35;;;2.30;;
66581;SDS011;53438;48.898;2.308;2023-11-18T11:15:30;4.07;;;1.75;;
66581;SDS011;53438;48.898;2.308;2023-11-18T11:17:58;4.47;;;1.92;;
66581;SDS011;53438;48.898;2.308;2023-11-18T11:20:47;7.57;;;1.93;;
66581;SDS011;53438;48.898;2.308;2023-11-18T11:31:42;3.67;;;2.22;;
66581;SDS011;53438;48.898;2.308;2023-11-18T11:34:17;2.83;;;1.97;;
66581;SDS011;53438;48.898;2.308;2023-11-18T11:36:48;5.47;;;3.47;;
66581;SDS011;53438;48.898;2.308;2023-11-18T11:39:16;7.68;;;2.63;;
66581;SDS011;53438;48.898;2.308;2023-11-18T11:41:46;5.88;;;2.20;;
66581;SDS011;53438;48.898;2.308;2023-11-18T11:44:16;5.15;;;1.90;;
66581;SDS011;53438;48.898;2.308;2023-11-18T11:46:44;4.27;;;1.77;;
66581;SDS011;53438;48.898;2.308;2023-11-18T11:49:19;6.63;;;1.77;;
66581;SDS011;53438;48.898;2.308;2023-11-18T11:52:06;2.67;;;1.55;;
66581;SDS011;53438;48.898;2.308;2023-11-18T11:54:47;8.55;;;4.63;;
66581;SDS011;53438;48.898;2.308;2023-11-18T11:57:21;3.63;;;1.75;;
66581;SDS011;53438;48.898;2.308;2023-11-18T12:02:20;8.68;;;2.80;;
66581;SDS011;53438;48.898;2.308;2023-11-18T12:04:49;9.80;;;2.47;;
66581;SDS011;53438;48.898;2.308;2023-11-18T12:07:19;4.40;;;2.17;;
66581;SDS011;53438;48.898;2.308;2023-11-18T12:09:46;7.70;;;2.00;;
66581;SDS011;53438;48.898;2.308;2023-11-18T12:12:19;5.97;;;1.67;;
66581;SDS011;53438;48.898;2.308;2023-11-18T12:14:49;2.33;;;1.65;;
66581;SDS011;53438;48.898;2.308;2023-11-18T12:17:21;13.55;;;2.63;;
66581;SDS011;53438;48.898;2.308;2023-11-18T12:19:47;5.30;;;2.00;;
66581;SDS011;53438;48.898;2.308;2023-11-18T12:22:19;3.08;;;1.88;;
66581;SDS011;53438;48.898;2.308;2023-11-18T12:27:42;6.03;;;2.77;;
66581;SDS011;53438;48.898;2.308;2023-11-18T12:35:42;2.63;;;1.65;;
66581;SDS011;53438;48.898;2.308;2023-11-18T12:41:22;4.00;;;1.75;;
66581;SDS011;53438;48.898;2.308;2023-11-18T12:47:00;6.80;;;2.30;;
66581;SDS011;53438;48.898;2.308;2023-11-18T12:49:43;4.60;;;1.77;;
66581;SDS011;53438;48.898;2.308;2023-11-18T12:52:15;5.50;;;1.45;;
66581;SDS011;53438;48.898;2.308;2023-11-18T12:54:44;4.45;;;2.22;;
66581;SDS011;53438;48.898;2.308;2023-11-18T12:57:12;3.05;;;1.70;;
66581;SDS011;53438;48.898;2.308;2023-11-18T12:59:41;3.67;;;1.47;;
66581;SDS011;53438;48.898;2.308;2023-11-18T13:02:10;2.92;;;1.70;;
66581;SDS011;53438;48.898;2.308;2023-11-18T13:04:44;3.55;;;1.75;;
66581;SDS011;53438;48.898;2.308;2023-11-18T13:07:12;3.60;;;2.40;;
66581;SDS011;53438;48.898;2.308;2023-11-18T13:09:43;4.80;;;2.10;;
66581;SDS011;53438;48.898;2.308;2023-11-18T13:12:11;6.43;;;2.03;;
66581;SDS011;53438;48.898;2.308;2023-11-18T13:14:40;7.25;;;2.30;;
66581;SDS011;53438;48.898;2.308;2023-11-18T13:17:11;3.60;;;2.22;;
66581;SDS011;53438;48.898;2.308;2023-11-18T13:19:38;3.78;;;1.80;;
66581;SDS011;53438;48.898;2.308;2023-11-18T13:22:10;4.27;;;1.57;;
66581;SDS011;53438;48.898;2.308;2023-11-18T13:24:40;2.60;;;1.20;;
66581;SDS011;53438;48.898;2.308;2023-11-18T13:27:10;1.98;;;1.60;;
66581;SDS011;53438;48.898;2.308;2023-11-18T13:29:38;2.72;;;1.33;;
66581;SDS011;53438;48.898;2.308;2023-11-18T13:32:04;3.20;;;1.77;;
66581;SDS011;53438;48.898;2.308;2023-11-18T13:34:31;2.55;;;1.70;;
66581;SDS011;53438;48.898;2.308;2023-11-18T13:36:59;4.43;;;1.70;;
66581;SDS011;53438;48.898;2.308;2023-11-18T13:39:25;3.55;;;2.00;;
66581;SDS011;53438;48.898;2.308;2023-11-18T13:41:52;5.33;;;1.90;;
66581;SDS011;53438;48.898;2.308;2023-11-18T13:44:36;3.35;;;1.77;;
66581;SDS011;53438;48.898;2.308;2023-11-18T13:47:09;4.55;;;1.60;;
66581;SDS011;53438;48.898;2.308;2023-11-18T13:49:39;4.05;;;1.80;;
66581;SDS011;53438;48.898;2.308;2023-11-18T13:52:08;3.88;;;2.00;;
66581;SDS011;53438;48.898;2.308;2023-11-18T13:54:36;3.13;;;2.10;;
66581;SDS011;53438;48.898;2.308;2023-11-18T13:57:02;5.90;;;2.75;;
66581;SDS011;53438;48.898;2.308;2023-11-18T13:59:29;4.22;;;2.70;;
66581;SDS011;53438;48.898;2.308;2023-11-18T14:01:55;4.45;;;2.08;;
66581;SDS011;53438;48.898;2.308;2023-11-18T14:04:24;7.32;;;2.63;;
66581;SDS011;53438;48.898;2.308;2023-11-18T14:06:52;6.80;;;3.30;;
66581;SDS011;53438;48.898;2.308;2023-11-18T14:09:21;5.78;;;2.80;;
66581;SDS011;53438;48.898;2.308;2023-11-18T14:11:47;5.00;;;1.80;;
66581;SDS011;53438;48.898;2.308;2023-11-18T14:14:13;4.65;;;2.42;;
66581;SDS011;53438;48.898;2.308;2023-11-18T14:16:39;5.72;;;2.50;;
66581;SDS011;53438;48.898;2.308;2023-11-18T14:19:05;6.50;;;2.40;;
66581;SDS011;53438;48.898;2.308;2023-11-18T14:21:31;5.05;;;2.42;;
66581;SDS011;53438;48.898;2.308;2023-11-18T14:23:57;3.60;;;2.38;;
66581;SDS011;53438;48.898;2.308;2023-11-18T14:26:25;8.00;;;2.70;;
66581;SDS011;53438;48.898;2.308;2023-11-18T14:28:52;5.88;;;2.10;;
66581;SDS011;53438;48.898;2.308;2023-11-18T14:31:17;5.28;;;2.28;;
66581;SDS011;53438;48.898;2.308;2023-11-18T14:33:43;3.58;;;1.90;;
66581;SDS011;53438;48.898;2.308;2023-11-18T14:36:08;3.30;;;1.80;;
66581;SDS011;53438;48.898;2.308;2023-11-18T14:38:34;3.58;;;2.17;;
66581;SDS011;53438;48.898;2.308;2023-11-18T14:40:59;6.00;;;2.10;;
66581;SDS011;53438;48.898;2.308;2023-11-18T14:43:25;5.03;;;2.37;;
66581;SDS011;53438;48.898;2.308;2023-11-18T14:45:50;4.67;;;1.90;;
66581;SDS011;53438;48.898;2.308;2023-11-18T14:48:16;4.32;;;2.05;;
66581;SDS011;53438;48.898;2.308;2023-11-18T14:50:41;6.15;;;1.95;;
66581;SDS011;53438;48.898;2.308;2023-11-18T14:53:07;2.93;;;1.83;;
66581;SDS011;53438;48.898;2.308;2023-11-18T14:55:32;4.37;;;1.40;;
66581;SDS011;53438;48.898;2.308;2023-11-18T14:57:58;3.78;;;1.73;;
66581;SDS011;53438;48.898;2.308;2023-11-18T15:00:24;4.23;;;1.67;;
66581;SDS011;53438;48.898;2.308;2023-11-18T15:02:52;4.32;;;1.63;;
66581;SDS011;53438;48.898;2.308;2023-11-18T15:05:19;2.78;;;1.33;;
66581;SDS011;53438;48.898;2.308;2023-11-18T15:07:48;4.13;;;1.75;;
66581;SDS011;53438;48.898;2.308;2023-11-18T15:10:19;3.70;;;1.67;;
66581;SDS011;53438;48.898;2.308;2023-11-18T15:12:46;4.53;;;2.28;;
66581;SDS011;53438;48.898;2.308;2023-11-18T15:15:26;10.90;;;6.15;;
66581;SDS011;53438;48.898;2.308;2023-11-18T15:18:02;6.22;;;2.55;;
66581;SDS011;53438;48.898;2.308;2023-11-18T15:20:35;3.40;;;1.83;;
66581;SDS011;53438;48.898;2.308;2023-11-18T15:23:01;4.00;;;2.37;;
66581;SDS011;53438;48.898;2.308;2023-11-18T15:25:27;2.83;;;1.83;;
66581;SDS011;53438;48.898;2.308;2023-11-18T15:27:52;3.90;;;1.77;;
66581;SDS011;53438;48.898;2.308;2023-11-18T15:30:18;3.05;;;1.50;;
66581;SDS011;53438;48.898;2.308;2023-11-18T15:32:44;2.37;;;1.67;;
66581;SDS011;53438;48.898;2.308;2023-11-18T15:35:11;3.75;;;1.58;;
66581;SDS011;53438;48.898;2.308;2023-11-18T15:37:38;3.60;;;2.00;;
66581;SDS011;53438;48.898;2.308;2023-11-18T15:40:07;4.55;;;2.00;;
66581;SDS011;53438;48.898;2.308;2023-11-18T15:42:36;5.53;;;1.90;;
66581;SDS011;53438;48.898;2.308;2023-11-18T15:45:04;5.70;;;2.50;;
66581;SDS011;53438;48.898;2.308;2023-11-18T15:47:33;4.68;;;2.60;;
66581;SDS011;53438;48.898;2.308;2023-11-18T15:50:01;4.22;;;2.58;;
66581;SDS011;53438;48.898;2.308;2023-11-18T15:52:29;4.05;;;2.78;;
66581;SDS011;53438;48.898;2.308;2023-11-18T15:54:54;5.80;;;3.10;;
66581;SDS011;53438;48.898;2.308;2023-11-18T15:57:19;6.87;;;2.90;;
66581;SDS011;53438;48.898;2.308;2023-11-18T15:59:46;4.40;;;2.50;;
66581;SDS011;53438;48.898;2.308;2023-11-18T16:02:12;5.17;;;2.63;;
66581;SDS011;53438;48.898;2.308;2023-11-18T16:04:37;4.57;;;2.80;;
66581;SDS011;53438;48.898;2.308;2023-11-18T16:07:03;6.10;;;2.72;;
66581;SDS011;53438;48.898;2.308;2023-11-18T16:09:28;4.07;;;2.63;;
66581;SDS011;53438;48.898;2.308;2023-11-18T16:11:54;5.10;;;2.70;;
66581;SDS011;53438;48.898;2.308;2023-11-18T16:14:19;6.50;;;3.73;;
66581;SDS011;53438;48.898;2.308;2023-11-18T16:16:46;6.78;;;3.00;;
66581;SDS011;53438;48.898;2.308;2023-11-18T16:19:11;6.17;;;3.37;;
66581;SDS011;53438;48.898;2.308;2023-11-18T16:21:37;5.40;;;3.07;;
66581;SDS011;53438;48.898;2.308;2023-11-18T16:24:03;5.35;;;2.70;;
66581;SDS011;53438;48.898;2.308;2023-11-18T16:26:29;6.95;;;3.47;;
66581;SDS011;53438;48.898;2.308;2023-11-18T16:28:54;5.13;;;2.77;;
66581;SDS011;53438;48.898;2.308;2023-11-18T16:31:20;6.78;;;3.67;;
66581;SDS011;53438;48.898;2.308;2023-11-18T16:33:46;5.97;;;3.08;;
66581;SDS011;53438;48.898;2.308;2023-11-18T16:36:17;5.75;;;2.88;;
66581;SDS011;53438;48.898;2.308;2023-11-18T16:38:46;5.67;;;2.53;;
66581;SDS011;53438;48.898;2.308;2023-11-18T16:41:11;5.97;;;3.30;;
66581;SDS011;53438;48.898;2.308;2023-11-18T16:43:37;6.55;;;2.67;;
66581;SDS011;53438;48.898;2.308;2023-11-18T16:46:02;4.43;;;2.57;;
66581;SDS011;53438;48.898;2.308;2023-11-18T16:48:28;4.50;;;2.77;;
66581;SDS011;53438;48.898;2.308;2023-11-18T16:50:53;5.90;;;2.77;;
66581;SDS011;53438;48.898;2.308;2023-11-18T16:53:19;4.38;;;2.28;;
66581;SDS011;53438;48.898;2.308;2023-11-18T16:55:44;5.37;;;3.07;;
66581;SDS011;53438;48.898;2.308;2023-11-18T16:58:10;7.20;;;3.27;;
66581;SDS011;53438;48.898;2.308;2023-11-18T17:00:35;5.27;;;2.97;;
66581;SDS011;53438;48.898;2.308;2023-11-18T17:03:02;7.18;;;2.67;;
66581;SDS011;53438;48.898;2.308;2023-11-18T17:05:29;8.43;;;3.40;;
66581;SDS011;53438;48.898;2.308;2023-11-18T17:07:54;5.03;;;2.90;;
66581;SDS011;53438;48.898;2.308;2023-11-18T17:10:20;6.72;;;2.70;;
66581;SDS011;53438;48.898;2.308;2023-11-18T17:12:47;4.57;;;2.75;;
66581;SDS011;53438;48.898;2.308;2023-11-18T17:15:13;9.38;;;3.22;;
66581;SDS011;53438;48.898;2.308;2023-11-18T17:17:40;9.87;;;3.90;;
66581;SDS011;53438;48.898;2.308;2023-11-18T17:20:24;9.02;;;3.65;;
66581;SDS011;53438;48.898;2.308;2023-11-18T17:22:49;10.37;;;4.80;;
66581;SDS011;53438;48.898;2.308;2023-11-18T17:25:16;7.05;;;3.58;;
66581;SDS011;53438;48.898;2.308;2023-11-18T17:27:43;11.30;;;4.63;;
66581;SDS011;53438;48.898;2.308;2023-11-18T17:30:09;14.32;;;4.75;;
66581;SDS011;53438;48.898;2.308;2023-11-18T17:32:39;7.40;;;3.92;;
66581;SDS011;53438;48.898;2.308;2023-11-18T17:35:08;9.60;;;3.90;;
66581;SDS011;53438;48.898;2.308;2023-11-18T17:37:37;8.68;;;3.80;;
66581;SDS011;53438;48.898;2.308;2023-11-18T17:40:03;10.55;;;4.13;;
66581;SDS011;53438;48.898;2.308;2023-11-18T17:42:29;9.90;;;3.92;;
66581;SDS011;53438;48.898;2.308;2023-11-18T17:44:55;10.82;;;4.00;;
66581;SDS011;53438;48.898;2.308;2023-11-18T17:47:21;7.83;;;3.87;;
66581;SDS011;53438;48.898;2.308;2023-11-18T17:49:51;11.25;;;3.70;;
66581;SDS011;53438;48.898;2.308;2023-11-18T17:52:19;10.52;;;4.38;;
66581;SDS011;53438;48.898;2.308;2023-11-18T17:54:44;12.83;;;3.90;;
66581;SDS011;53438;48.898;2.308;2023-11-18T17:57:09;9.50;;;3.97;;
66581;SDS011;53438;48.898;2.308;2023-11-18T17:59:35;7.53;;;4.03;;
66581;SDS011;53438;48.898;2.308;2023-11-18T18:02:01;9.00;;;3.90;;
66581;SDS011;53438;48.898;2.308;2023-11-18T18:04:26;8.47;;;3.87;;
66581;SDS011;53438;48.898;2.308;2023-11-18T18:06:51;11.47;;;4.60;;
66581;SDS011;53438;48.898;2.308;2023-11-18T18:09:17;10.17;;;3.87;;
66581;SDS011;53438;48.898;2.308;2023-11-18T18:11:44;14.75;;;4.22;;
66581;SDS011;53438;48.898;2.308;2023-11-18T18:14:10;9.15;;;3.83;;
66581;SDS011;53438;48.898;2.308;2023-11-18T18:16:35;13.20;;;4.20;;